Time;durP1;ratioP1;P1;durP2;ratioP2;P2;SDS_P1;SDS_P2;PMS_P1;PMS_P2;Temp;Humidity;BMP_temperature;BMP_pressure;BME280_temperature;BME280_humidity;BME280_pressure;Samples;Min_cycle;Max_cycle;Signal;HPM_P1;HPM_P2
2021/11/15 00:00:17;;;;;;;77.72;48.90;;;;;;;5.57;79.02;100773.53;1732857;82;21102;-66
2021/11/15 00:02:45;;;;;;;74.07;47.70;;;;;;;5.60;78.88;100769.05;1734600;82;21110;-66
2021/11/15 00:05:11;;;;;;;67.92;44.77;;;;;;;5.62;78.82;100771.03;1749665;82;21046;-65
2021/11/15 00:07:41;;;;;;;71.70;45.50;;;;;;;5.66;78.79;100770.92;1749366;80;21079;-66
2021/11/15 00:10:07;;;;;;;72.35;45.52;;;;;;;5.69;78.82;100764.25;1732638;82;21054;-65
2021/11/15 00:12:34;;;;;;;70.55;46.40;;;;;;;5.69;78.85;100761.55;1739182;82;21545;-65
2021/11/15 00:15:02;;;;;;;69.25;46.40;;;;;;;5.68;78.81;100770.69;1751024;82;21070;-65
2021/11/15 00:17:29;;;;;;;70.25;45.95;;;;;;;5.65;78.70;100766.55;1746664;82;21015;-65
2021/11/15 00:19:57;;;;;;;71.47;45.92;;;;;;;5.62;78.69;100769.69;1736354;82;21070;-65
2021/11/15 00:22:23;;;;;;;69.50;45.45;;;;;;;5.60;78.72;100772.30;1738005;80;21058;-65
2021/11/15 00:24:51;;;;;;;69.15;46.40;;;;;;;5.55;78.76;100764.83;1749892;82;21015;-65
2021/11/15 00:27:17;;;;;;;74.40;48.13;;;;;;;5.45;78.96;100773.91;1751383;80;21113;-65
2021/11/15 00:29:44;;;;;;;70.40;46.60;;;;;;;5.41;79.15;100770.81;1737564;82;21026;-65
2021/11/15 00:32:12;;;;;;;71.80;47.00;;;;;;;5.42;79.20;100772.45;1732743;82;21142;-65
2021/11/15 00:34:38;;;;;;;;;;;;;;;5.44;79.17;100775.78;1747186;82;21522;-65
2021/11/15 00:37:05;;;;;;;73.62;46.40;;;;;;;5.42;79.16;100777.84;1732460;80;20098;-65
2021/11/15 00:39:32;;;;;;;71.85;45.80;;;;;;;5.34;79.32;100780.80;1732639;82;21528;-66
2021/11/15 00:41:58;;;;;;;69.17;46.92;;;;;;;5.33;79.46;100778.30;1738355;80;21648;-66
2021/11/15 00:44:26;;;;;;;71.87;47.60;;;;;;;5.30;79.71;100776.86;1751183;82;22022;-65
2021/11/15 00:46:53;;;;;;;;;;;;;;;5.29;79.80;100781.95;1753667;80;21082;-65
2021/11/15 00:49:19;;;;;;;72.90;45.95;;;;;;;5.31;79.83;100787.98;1736370;82;20421;-65
2021/11/15 00:51:45;;;;;;;69.15;44.95;;;;;;;5.31;80.00;100787.15;1732181;82;21589;-65
2021/11/15 00:54:13;;;;;;;67.10;44.13;;;;;;;5.32;80.04;100772.58;1742175;82;21075;-66
2021/11/15 00:56:39;;;;;;;;;;;;;;;5.34;80.07;100772.70;1729577;81;21091;-65
2021/11/15 00:59:05;;;;;;;74.80;47.43;;;;;;;5.37;80.11;100770.92;1733976;82;20107;-65
2021/11/15 01:01:32;;;;;;;77.60;49.85;;;;;;;5.29;80.25;100779.25;1734807;81;21637;-64
2021/11/15 01:03:58;;;;;;;75.67;48.40;;;;;;;5.26;80.37;100787.77;1738997;82;21549;-65
2021/11/15 01:06:25;;;;;;;77.30;49.40;;;;;;;5.27;80.35;100788.61;1735436;82;21506;-65
2021/11/15 01:08:51;;;;;;;70.08;47.78;;;;;;;5.29;80.34;100788.70;1723809;82;21585;-66
2021/11/15 01:11:17;;;;;;;78.05;50.65;;;;;;;5.30;80.31;100784.12;1723742;82;21011;-65
2021/11/15 01:13:43;;;;;;;76.47;51.08;;;;;;;5.30;80.34;100784.97;1727785;82;21015;-65
2021/11/15 01:16:10;;;;;;;76.20;49.98;;;;;;;5.31;80.43;100784.45;1733910;82;21035;-65
2021/11/15 01:18:41;;;;;;;73.62;47.93;;;;;;;5.28;80.55;100778.93;1724674;82;21059;-65
2021/11/15 01:21:05;;;;;;;74.15;49.25;;;;;;;5.29;80.61;100792.75;1723013;82;21044;-65
2021/11/15 01:23:31;;;;;;;75.80;50.15;;;;;;;5.33;80.53;100793.98;1726843;82;21022;-65
2021/11/15 01:25:57;;;;;;;75.65;47.40;;;;;;;5.36;80.45;100791.38;1734984;82;21023;-65
2021/11/15 01:28:23;;;;;;;70.78;47.75;;;;;;;5.36;80.40;100798.95;1729224;82;21023;-65
2021/11/15 01:30:50;;;;;;;73.17;48.60;;;;;;;5.34;80.44;100805.10;1738853;82;20995;-66
2021/11/15 01:33:16;;;;;;;70.67;46.18;;;;;;;5.34;80.48;100817.25;1736934;81;21058;-65
2021/11/15 01:35:42;;;;;;;79.37;47.38;;;;;;;5.32;80.56;100814.44;1723533;82;21125;-65
2021/11/15 01:38:09;;;;;;;70.78;46.63;;;;;;;5.31;80.65;100806.05;1724448;82;21031;-65
2021/11/15 01:40:35;;;;;;;73.47;48.33;;;;;;;5.30;80.65;100805.73;1723364;83;21071;-65
2021/11/15 01:43:02;;;;;;;78.75;49.00;;;;;;;5.27;80.79;100806.16;1735853;81;21095;-65
2021/11/15 01:45:31;;;;;;;72.30;47.90;;;;;;;5.26;80.88;100811.23;1728782;82;20995;-65
2021/11/15 01:48:00;;;;;;;76.57;48.00;;;;;;;5.29;80.86;100810.30;1726298;82;21067;-65
2021/11/15 01:50:27;;;;;;;74.67;48.40;;;;;;;5.31;80.76;100801.48;1723313;83;21121;-64
2021/11/15 01:52:54;;;;;;;77.75;48.90;;;;;;;5.32;80.78;100802.28;1723488;82;21039;-65
2021/11/15 01:55:21;;;;;;;76.15;49.67;;;;;;;5.31;80.76;100808.23;1735262;82;21531;-65
2021/11/15 01:57:48;;;;;;;72.32;48.55;;;;;;;5.25;80.93;100794.20;1737729;81;21148;-65
2021/11/15 02:00:19;;;;;;;70.42;47.33;;;;;;;5.22;81.03;100795.15;1728953;82;21051;-66
2021/11/15 02:02:45;;;;;;;79.65;50.25;;;;;;;5.29;81.07;100790.56;1725843;82;21641;-65
2021/11/15 02:05:12;;;;;;;75.42;48.48;;;;;;;5.35;80.94;100807.28;1737844;82;21538;-65
2021/11/15 02:07:38;;;;;;;84.00;52.05;;;;;;;5.37;80.88;100809.24;1724512;82;21539;-66
2021/11/15 02:10:07;;;;;;;81.47;50.73;;;;;;;5.33;80.89;100806.13;1718382;82;21606;-65
2021/11/15 02:12:34;;;;;;;80.87;50.20;;;;;;;5.30;80.98;100802.52;1719675;82;21528;-65
2021/11/15 02:15:00;;;;;;;78.10;48.87;;;;;;;5.30;80.97;100802.52;1718406;82;21503;-65
2021/11/15 02:17:27;;;;;;;70.67;47.58;;;;;;;5.32;80.96;100803.63;1719363;82;21071;-65
2021/11/15 02:19:53;;;;;;;78.62;50.50;;;;;;;5.37;80.96;100799.27;1718100;83;21681;-65
2021/11/15 02:22:20;;;;;;;;;;;;;;;5.36;80.92;100803.52;1728850;82;21558;-65
2021/11/15 02:24:46;;;;;;;76.95;48.95;;;;;;;5.31;81.05;100805.53;1720930;82;20265;-65
2021/11/15 02:27:12;;;;;;;83.12;51.08;;;;;;;5.24;81.32;100803.37;1719363;82;21048;-65
2021/11/15 02:29:39;;;;;;;;;;;;;;;5.30;81.30;100805.22;1733567;82;21024;-65
2021/11/15 02:32:07;;;;;;;81.45;49.25;;;;;;;5.34;81.18;100807.80;1721307;82;20390;-66
2021/11/15 02:34:34;;;;;;;75.72;49.25;;;;;;;5.35;81.13;100807.28;1718242;82;21602;-65
2021/11/15 02:37:00;;;;;;;81.65;50.92;;;;;;;5.36;81.10;100812.45;1723392;81;21063;-65
2021/11/15 02:39:26;;;;;;;77.20;49.53;;;;;;;5.35;81.21;100820.79;1719619;82;21086;-65
2021/11/15 02:41:52;;;;;;;78.30;51.08;;;;;;;5.35;81.24;100826.19;1725867;81;21031;-65
2021/11/15 02:44:19;;;;;;;83.58;51.58;;;;;;;5.37;81.13;100829.49;1738144;82;21047;-65
2021/11/15 02:46:46;;;;;;;78.60;49.33;;;;;;;5.40;81.03;100833.12;1723373;82;21067;-65
2021/11/15 02:49:13;;;;;;;78.57;49.75;;;;;;;5.43;80.97;100842.14;1735540;82;21566;-65
2021/11/15 02:51:39;;;;;;;86.75;53.85;;;;;;;5.44;80.93;100842.45;1732048;82;21582;-66
2021/11/15 02:54:06;;;;;;;83.62;53.63;;;;;;;5.39;81.01;100851.19;1719382;82;21902;-65
2021/11/15 02:56:32;;;;;;;88.92;56.75;;;;;;;5.37;81.09;100855.98;1718324;82;21063;-65
2021/11/15 02:58:58;;;;;;;91.25;57.62;;;;;;;5.34;80.97;100851.52;1719573;82;21031;-65
2021/11/15 03:01:25;;;;;;;88.55;57.38;;;;;;;5.35;80.94;100857.23;1729310;81;20995;-65
2021/11/15 03:03:51;;;;;;;89.75;56.77;;;;;;;5.32;80.93;100856.28;1737936;82;21031;-65
2021/11/15 03:06:17;;;;;;;93.00;59.50;;;;;;;5.29;81.09;100855.36;1734343;82;21082;-65
2021/11/15 03:08:44;;;;;;;93.72;61.65;;;;;;;5.27;81.27;100858.28;1725541;82;21023;-65
2021/11/15 03:11:11;;;;;;;100.30;63.28;;;;;;;5.27;81.38;100863.69;1733456;81;21082;-64
2021/11/15 03:13:44;;;;;;;92.65;59.50;;;;;;;5.23;81.33;100861.61;1723598;82;21067;-64
2021/11/15 03:16:11;;;;;;;91.53;59.23;;;;;;;5.21;81.36;100867.20;1726968;82;21039;-64
2021/11/15 03:18:38;;;;;;;;;;;;;;;5.19;81.47;100858.50;1737494;82;21031;-65
2021/11/15 03:21:15;;;;;;;99.13;61.65;;;;;;;5.20;81.54;100863.38;1736731;82;20103;-65
2021/11/15 03:23:45;;;;;;;89.90;59.00;;;;;;;5.14;81.72;100865.03;1734590;82;21500;-65
2021/11/15 03:26:11;;;;;;;90.65;57.30;;;;;;;5.08;81.97;100865.88;1719247;82;21035;-65
2021/11/15 03:28:40;;;;;;;;;;;;;;;5.08;82.13;100868.57;1720401;82;21079;-65
2021/11/15 03:31:21;;;;;;;89.85;56.33;;;;;;;5.13;82.13;100867.95;1718369;82;20135;-65
2021/11/15 03:33:52;;;;;;;95.55;57.08;;;;;;;5.09;82.17;100863.50;1717658;83;21082;-65
2021/11/15 03:36:19;;;;;;;92.40;55.73;;;;;;;5.11;82.23;100868.15;1719457;82;21510;-65
2021/11/15 03:38:45;;;;;;;93.37;56.48;;;;;;;5.10;82.24;100870.53;1718261;83;21050;-65
2021/11/15 03:41:11;;;;;;;101.55;59.73;;;;;;;5.12;82.27;100873.87;1719604;82;21003;-66
2021/11/15 03:43:38;;;;;;;95.60;59.23;;;;;;;5.08;82.27;100887.47;1718220;83;20988;-65
2021/11/15 03:46:04;;;;;;;90.65;53.65;;;;;;;5.03;82.47;100881.05;1730635;82;21012;-65
2021/11/15 03:48:30;;;;;;;98.07;60.40;;;;;;;5.01;82.67;100882.59;1736230;81;21039;-66
2021/11/15 03:50:57;;;;;;;;;;;;;;;5.01;82.70;100883.94;1738797;82;21098;-66
2021/11/15 03:53:27;;;;;;;89.60;54.80;;;;;;;4.97;82.79;100886.73;1737667;81;20091;-65
2021/11/15 03:55:53;;;;;;;87.30;54.83;;;;;;;4.91;83.04;100894.31;1730982;82;21541;-65
2021/11/15 03:58:19;;;;;;;88.58;54.55;;;;;;;4.90;83.10;100896.70;1715263;82;21699;-65
2021/11/15 04:00:46;;;;;;;;;;;;;;;4.88;83.23;100902.83;1718953;83;21659;-65
2021/11/15 04:03:20;;;;;;;80.57;50.23;;;;;;;4.85;83.32;100903.25;1719176;83;20103;-65
2021/11/15 04:05:54;;;;;;;94.60;56.02;;;;;;;4.82;83.56;100903.12;1678324;85;21087;-65
2021/11/15 04:08:18;;;;;;;91.55;52.65;;;;;;;4.85;83.57;100904.05;1660492;85;21084;-65
2021/11/15 04:10:44;;;;;;;87.78;52.93;;;;;;;4.85;83.55;100906.75;1714888;84;21524;-65
2021/11/15 04:13:16;;;;;;;94.55;55.23;;;;;;;4.86;83.58;100911.11;1721918;82;21116;-64
2021/11/15 04:15:43;;;;;;;98.17;54.23;;;;;;;4.88;83.60;100907.71;1723182;83;21687;-65
2021/11/15 04:18:11;;;;;;;92.85;54.18;;;;;;;4.89;83.54;100912.56;1714222;82;21145;-67
2021/11/15 04:20:38;;;;;;;93.62;53.75;;;;;;;4.88;83.62;100920.37;1714482;83;21031;-65
2021/11/15 04:23:04;;;;;;;89.87;53.75;;;;;;;4.86;83.71;100917.86;1691966;84;21062;-65
2021/11/15 04:25:30;;;;;;;91.08;53.87;;;;;;;4.88;83.77;100919.02;1722812;83;21057;-65
2021/11/15 04:27:58;;;;;;;94.52;53.08;;;;;;;4.89;83.80;100919.31;1722083;83;21061;-65
2021/11/15 04:30:24;;;;;;;97.25;54.18;;;;;;;4.88;83.79;100925.25;1722779;83;21050;-65
2021/11/15 04:32:50;;;;;;;91.78;52.88;;;;;;;4.88;83.75;100929.30;1716798;83;21109;-65
2021/11/15 04:35:18;;;;;;;98.50;52.38;;;;;;;4.86;83.80;100933.22;1736535;82;21047;-65
2021/11/15 04:37:45;;;;;;;87.67;50.38;;;;;;;4.89;83.91;100929.59;1738182;81;21090;-65
2021/11/15 04:40:12;;;;;;;92.95;49.85;;;;;;;4.94;83.86;100941.13;1738480;82;21027;-65
2021/11/15 04:42:39;;;;;;;92.37;51.20;;;;;;;4.93;83.87;100950.25;1736402;81;21598;-65
2021/11/15 04:45:05;;;;;;;94.28;51.60;;;;;;;4.88;83.89;100950.88;1738612;82;21102;-65
2021/11/15 04:47:32;;;;;;;89.60;50.92;;;;;;;4.89;83.92;100944.94;1728286;82;21114;-65
2021/11/15 04:49:58;;;;;;;85.30;50.00;;;;;;;4.89;83.93;100946.29;1723892;82;21039;-65
2021/11/15 04:52:25;;;;;;;92.47;50.88;;;;;;;4.90;83.89;100947.45;1726509;81;21063;-65
2021/11/15 04:54:51;;;;;;;91.60;49.98;;;;;;;4.92;83.91;100954.00;1724064;83;21051;-65
2021/11/15 04:57:18;;;;;;;83.97;47.88;;;;;;;4.91;83.85;100950.98;1726990;82;21543;-65
2021/11/15 04:59:47;;;;;;;89.67;48.95;;;;;;;4.90;83.90;100960.94;1725578;83;21158;-65
2021/11/15 05:02:13;;;;;;;84.60;47.08;;;;;;;4.92;83.94;100968.30;1739838;81;21051;-65
2021/11/15 05:04:39;;;;;;;85.72;46.98;;;;;;;4.94;83.93;100969.45;1735750;82;21047;-65
2021/11/15 05:07:06;;;;;;;82.60;48.58;;;;;;;4.97;83.92;100966.34;1711323;82;21601;-65
2021/11/15 05:09:34;;;;;;;78.17;45.05;;;;;;;4.97;83.92;100969.88;1737025;82;21855;-65
2021/11/15 05:12:02;;;;;;;83.45;48.05;;;;;;;4.97;84.01;100974.44;1741927;81;21043;-65
2021/11/15 05:14:29;;;;;;;87.35;48.90;;;;;;;5.00;84.01;100980.77;1743301;82;21051;-65
2021/11/15 05:16:55;;;;;;;77.37;44.75;;;;;;;5.01;83.90;100982.44;1735207;82;21046;-64
2021/11/15 05:19:22;;;;;;;85.85;47.78;;;;;;;5.02;83.86;100985.46;1736998;82;20956;-65
2021/11/15 05:21:48;;;;;;;82.40;45.60;;;;;;;5.02;83.84;100996.26;1716116;82;21055;-64
2021/11/15 05:24:14;;;;;;;79.65;44.23;;;;;;;5.03;83.82;100997.09;1735703;82;21089;-65
2021/11/15 05:26:41;;;;;;;82.15;46.42;;;;;;;5.05;83.81;100999.89;1727129;82;21047;-65
2021/11/15 05:29:07;;;;;;;83.33;47.23;;;;;;;5.06;83.76;101008.83;1741782;82;21066;-65
2021/11/15 05:31:34;;;;;;;78.15;45.23;;;;;;;5.03;83.78;101015.44;1727492;82;21632;-65
2021/11/15 05:34:02;;;;;;;79.55;46.18;;;;;;;4.96;83.91;101018.12;1725406;82;21046;-65
2021/11/15 05:36:29;;;;;;;74.75;44.38;;;;;;;4.95;83.94;101018.34;1726813;82;21129;-65
2021/11/15 05:38:55;;;;;;;81.10;44.70;;;;;;;4.96;84.00;101014.59;1734424;82;21007;-65
2021/11/15 05:41:21;;;;;;;79.82;44.63;;;;;;;4.96;83.98;101022.69;1732558;81;21019;-65
2021/11/15 05:43:48;;;;;;;79.58;45.20;;;;;;;4.94;84.05;101031.00;1730083;82;21010;-64
2021/11/15 05:46:14;;;;;;;77.03;43.52;;;;;;;4.93;84.07;101032.55;1728898;82;21017;-65
2021/11/15 05:48:40;;;;;;;76.22;43.40;;;;;;;4.92;84.15;101033.60;1725781;83;21505;-65
2021/11/15 05:51:06;;;;;;;80.42;44.40;;;;;;;4.96;84.19;101036.18;1731939;82;21617;-64
2021/11/15 05:53:35;;;;;;;81.17;45.20;;;;;;;4.98;84.14;101042.22;1733952;81;21139;-65
2021/11/15 05:56:03;;;;;;;80.38;43.40;;;;;;;4.97;84.07;101044.09;1731114;82;21023;-65
2021/11/15 05:58:29;;;;;;;77.40;42.60;;;;;;;4.97;84.00;101044.09;1714895;83;21060;-66
2021/11/15 06:00:56;;;;;;;69.87;40.78;;;;;;;4.97;84.05;101064.33;1731174;83;21092;-65
2021/11/15 06:03:23;;;;;;;66.20;40.20;;;;;;;5.01;84.01;101060.70;1730784;81;21051;-65
2021/11/15 06:05:50;;;;;;;64.97;39.80;;;;;;;4.99;83.94;101056.04;1731056;83;21753;-65
2021/11/15 06:08:17;;;;;;;73.15;41.92;;;;;;;5.01;83.89;101056.66;1733315;82;21554;-65
2021/11/15 06:10:43;;;;;;;;;;;;;;;5.01;83.80;101061.54;1736430;82;21537;-65
2021/11/15 06:13:10;;;;;;;70.57;38.28;;;;;;;5.02;83.66;101069.12;1737191;81;20154;-65
2021/11/15 06:15:37;;;;;;;70.08;39.65;;;;;;;4.97;83.76;101068.89;1730747;82;21593;-65
2021/11/15 06:18:03;;;;;;;69.27;40.30;;;;;;;4.94;83.77;101070.13;1730768;81;21635;-64
2021/11/15 06:20:30;;;;;;;68.65;38.80;;;;;;;4.97;83.70;101076.47;1733855;82;21577;-64
2021/11/15 06:22:56;;;;;;;67.22;40.05;;;;;;;4.99;83.67;101076.28;1730765;82;21385;-65
2021/11/15 06:25:23;;;;;;;68.57;38.83;;;;;;;5.05;83.54;101076.81;1730973;83;21046;-65
2021/11/15 06:27:50;;;;;;;63.08;37.48;;;;;;;5.08;83.43;101074.21;1730732;83;21643;-65
2021/11/15 06:30:17;;;;;;;71.53;39.40;;;;;;;5.12;83.34;101084.92;1734193;82;21058;-65
2021/11/15 06:32:44;;;;;;;66.55;38.00;;;;;;;5.13;83.19;101083.89;1730791;82;21517;-65
2021/11/15 06:35:10;;;;;;;65.92;38.38;;;;;;;5.13;83.08;101087.94;1732742;82;21035;-65
2021/11/15 06:37:36;;;;;;;;;;;;;;;5.13;82.98;101091.48;1742973;81;21035;-65
2021/11/15 06:40:04;;;;;;;72.08;39.53;;;;;;;5.12;82.98;101091.67;1730930;82;20507;-65
2021/11/15 06:42:31;;;;;;;64.47;38.60;;;;;;;5.01;83.19;101093.09;1730849;83;21062;-65
2021/11/15 06:44:57;;;;;;;64.77;38.50;;;;;;;5.03;83.20;101098.30;1731112;83;21027;-66
2021/11/15 06:47:23;;;;;;;66.25;38.05;;;;;;;5.08;83.11;101099.34;1740967;81;21023;-65
2021/11/15 06:49:54;;;;;;;68.80;40.05;;;;;;;5.10;82.96;101094.56;1737092;82;20987;-65
2021/11/15 06:52:21;;;;;;;73.90;40.90;;;;;;;5.13;82.87;101098.74;1730772;82;21569;-65
2021/11/15 06:54:48;;;;;;;68.12;39.98;;;;;;;5.11;82.70;101107.03;1730835;82;21094;-65
2021/11/15 06:57:15;;;;;;;69.53;39.00;;;;;;;5.10;82.75;101104.00;1730940;81;21043;-65
2021/11/15 06:59:41;;;;;;;62.83;38.17;;;;;;;5.14;82.73;101105.27;1725331;83;20992;-65
2021/11/15 07:02:08;;;;;;;69.92;39.83;;;;;;;5.14;82.61;101101.22;1736123;81;21123;-64
2021/11/15 07:04:35;;;;;;;67.70;40.50;;;;;;;5.17;82.48;101114.34;1742883;82;21035;-65
2021/11/15 07:07:04;;;;;;;69.55;39.23;;;;;;;5.12;82.33;101118.15;1742908;81;21575;-64
2021/11/15 07:09:30;;;;;;;64.32;38.55;;;;;;;5.13;82.46;101114.94;1727410;82;21015;-64
2021/11/15 07:11:57;;;;;;;67.67;38.53;;;;;;;5.14;82.33;101117.41;1726858;82;21082;-64
2021/11/15 07:17:14;;;;;;;66.67;38.38;;;;;;;5.19;82.27;101124.41;1800169;78;22800;-65
2021/11/15 07:19:40;;;;;;;64.37;38.25;;;;;;;5.13;82.29;101129.27;1753491;82;21540;-65
2021/11/15 07:22:07;;;;;;;60.17;36.68;;;;;;;5.12;82.27;101133.00;1753040;82;21636;-64
2021/11/15 07:24:33;;;;;;;66.07;39.63;;;;;;;5.18;82.19;101136.73;1739066;82;21046;-65
2021/11/15 07:26:59;;;;;;;64.12;37.33;;;;;;;5.20;82.00;101134.17;1734851;82;21058;-65
2021/11/15 07:29:25;;;;;;;64.32;37.67;;;;;;;5.23;81.88;101141.02;1723562;83;21058;-65
2021/11/15 07:31:52;;;;;;;63.75;38.05;;;;;;;5.25;81.80;101145.17;1729526;82;21114;-65
2021/11/15 07:34:18;;;;;;;66.50;39.70;;;;;;;5.24;81.65;101142.19;1751920;82;20975;-65
2021/11/15 07:36:45;;;;;;;62.00;36.25;;;;;;;5.26;81.42;101149.55;1753446;82;21016;-65
2021/11/15 07:39:12;;;;;;;57.60;36.98;;;;;;;5.22;81.29;101150.98;1753015;82;21066;-65
2021/11/15 07:41:38;;;;;;;64.10;37.48;;;;;;;5.20;81.35;101155.77;1741730;82;21058;-65
2021/11/15 07:44:05;;;;;;;68.40;40.52;;;;;;;5.21;81.34;101162.01;1747192;82;21030;-65
2021/11/15 07:46:31;;;;;;;;;;;;;;;5.23;81.44;101164.81;1727229;82;21558;-65
2021/11/15 07:48:58;;;;;;;56.10;34.88;;;;;;;5.30;81.44;101171.58;1722956;83;20471;-64
2021/11/15 07:51:24;;;;;;;56.13;34.00;;;;;;;5.34;81.34;101168.80;1723245;83;21567;-64
2021/11/15 07:53:51;;;;;;;58.75;35.65;;;;;;;5.37;81.08;101170.57;1723259;83;21568;-64
2021/11/15 07:56:18;;;;;;;57.10;35.08;;;;;;;5.37;80.80;101176.48;1723097;83;21106;-64
2021/11/15 07:58:44;;;;;;;60.45;36.53;;;;;;;5.35;80.86;101176.67;1723452;83;21622;-64
2021/11/15 08:01:10;;;;;;;64.17;38.30;;;;;;;5.38;80.73;101173.59;1723235;83;21511;-64
2021/11/15 08:03:41;;;;;;;55.65;34.83;;;;;;;5.42;80.54;101174.83;1723333;83;21074;-64
2021/11/15 08:06:05;;;;;;;50.23;32.65;;;;;;;5.49;80.48;101173.52;1722696;83;21625;-64
2021/11/15 08:08:33;;;;;;;54.13;34.45;;;;;;;5.55;80.25;101185.36;1723120;83;21066;-64
2021/11/15 08:11:01;;;;;;;59.63;36.58;;;;;;;5.56;79.93;101182.98;1723218;83;21106;-64
2021/11/15 08:13:27;;;;;;;54.55;33.35;;;;;;;5.53;79.83;101186.91;1723025;83;21113;-64
2021/11/15 08:15:54;;;;;;;54.67;34.45;;;;;;;5.53;79.71;101190.44;1718839;83;21047;-64
2021/11/15 08:18:20;;;;;;;59.67;36.65;;;;;;;5.56;79.31;101201.89;1710338;84;21048;-64
2021/11/15 08:20:47;;;;;;;54.48;33.40;;;;;;;5.54;79.05;101196.69;1710500;84;21067;-64
2021/11/15 08:23:15;;;;;;;59.08;36.15;;;;;;;5.53;79.01;101196.91;1710421;84;21063;-64
2021/11/15 08:26:28;;;;;;;56.00;34.95;;;;;;;5.53;78.83;101199.06;1710516;84;21641;-64
2021/11/15 08:29:02;;;;;;;57.60;35.15;;;;;;;5.54;78.79;101196.69;1710026;84;21016;-64
2021/11/15 08:31:29;;;;;;;56.60;34.23;;;;;;;5.62;78.76;101198.37;1709616;84;21106;-64
2021/11/15 08:33:55;;;;;;;55.67;36.03;;;;;;;5.63;78.72;101205.45;1710179;84;21035;-64
2021/11/15 08:36:23;;;;;;;57.15;34.25;;;;;;;5.69;78.63;101212.21;1709764;84;21059;-64
2021/11/15 08:39:13;;;;;;;55.17;34.58;;;;;;;5.81;78.39;101212.45;1710130;84;21481;-64
2021/11/15 08:41:45;;;;;;;52.03;34.30;;;;;;;5.92;78.00;101213.20;1709598;83;21135;-64
2021/11/15 08:44:11;;;;;;;54.05;35.03;;;;;;;5.97;77.58;101213.44;1709882;83;21007;-64
2021/11/15 08:46:38;;;;;;;55.52;33.50;;;;;;;6.00;77.48;101208.97;1710022;84;21023;-64
2021/11/15 08:49:08;;;;;;;52.65;32.38;;;;;;;6.02;76.81;101224.99;1709940;84;21042;-64
2021/11/15 08:51:36;;;;;;;47.88;31.27;;;;;;;5.99;76.17;101210.00;1709735;84;21071;-64
2021/11/15 08:54:03;;;;;;;46.73;30.57;;;;;;;5.99;75.92;101228.92;1709890;84;21620;-64
2021/11/15 08:56:30;;;;;;;45.58;30.35;;;;;;;5.98;75.56;101224.06;1709657;84;21130;-64
2021/11/15 08:58:57;;;;;;;44.67;28.35;;;;;;;5.93;75.21;101215.72;1710105;84;20982;-64
2021/11/15 09:01:25;;;;;;;51.28;29.45;;;;;;;5.98;74.98;101228.11;1710059;83;21046;-64
2021/11/15 09:03:53;;;;;;;41.50;28.15;;;;;;;6.03;74.28;101219.36;1710170;84;20995;-64
2021/11/15 09:06:20;;;;;;;48.87;30.08;;;;;;;6.00;74.05;101214.38;1709842;84;21125;-64
2021/11/15 09:08:46;;;;;;;41.70;28.45;;;;;;;6.00;74.13;101212.51;1710131;84;21026;-64
2021/11/15 09:11:12;;;;;;;;;;;;;;;6.11;74.08;101212.41;1712200;84;21075;-64
2021/11/15 09:13:41;;;;;;;37.95;25.10;;;;;;;6.35;73.34;101213.66;1709959;83;20133;-65
2021/11/15 09:16:08;;;;;;;41.15;25.35;;;;;;;6.43;72.55;101212.94;1713800;82;21059;-64
2021/11/15 09:18:35;;;;;;;36.95;24.75;;;;;;;6.47;71.03;101212.00;1723582;82;21034;-64
2021/11/15 09:21:06;;;;;;;36.88;25.60;;;;;;;6.40;70.74;101219.29;1723307;83;21406;-64
2021/11/15 09:23:31;;;;;;;34.92;24.45;;;;;;;6.49;70.75;101215.31;1723246;82;21043;-64
2021/11/15 09:25:58;;;;;;;35.50;23.77;;;;;;;6.59;70.00;101221.13;1723733;83;21070;-64
2021/11/15 09:28:24;;;;;;;34.78;24.25;;;;;;;6.74;69.53;101212.27;1723343;83;21027;-65
2021/11/15 09:30:50;;;;;;;36.25;25.15;;;;;;;6.99;68.74;101217.84;1723574;83;21019;-65
2021/11/15 09:33:17;;;;;;;36.83;25.43;;;;;;;7.12;67.95;101221.84;1726134;82;21081;-64
2021/11/15 09:35:50;;;;;;;40.85;26.75;;;;;;;7.20;67.55;101216.20;1750335;82;21046;-64
2021/11/15 09:38:19;;;;;;;32.10;23.45;;;;;;;7.36;67.22;101217.09;1730032;82;21696;-64
2021/11/15 09:40:47;;;;;;;39.25;26.17;;;;;;;7.38;66.21;101208.22;1723499;82;21002;-65
2021/11/15 09:43:15;;;;;;;35.60;25.23;;;;;;;7.28;65.66;101205.14;1738832;82;21071;-64
2021/11/15 09:45:41;;;;;;;38.02;27.22;;;;;;;7.16;66.30;101212.26;1751257;82;21008;-64
2021/11/15 09:48:09;;;;;;;32.58;23.35;;;;;;;7.28;66.67;101207.02;1749424;82;21030;-68
2021/11/15 09:50:37;;;;;;;32.42;22.22;;;;;;;7.55;66.84;101213.97;1723559;83;21007;-62
2021/11/15 09:53:05;;;;;;;31.68;22.75;;;;;;;7.93;65.79;101212.10;1723685;83;21050;-63
2021/11/15 09:55:32;;;;;;;33.02;21.55;;;;;;;8.11;64.60;101211.35;1739626;82;21011;-63
2021/11/15 09:57:59;;;;;;;32.38;22.93;;;;;;;8.14;62.99;101216.84;1748713;82;21015;-63
2021/11/15 10:00:27;;;;;;;31.73;23.42;;;;;;;7.99;62.83;101220.70;1753400;82;21007;-62
2021/11/15 10:02:58;;;;;;;37.28;26.48;;;;;;;7.97;62.85;101227.41;1748152;82;21034;-63
2021/11/15 10:05:25;;;;;;;37.23;26.80;;;;;;;7.94;63.18;101222.39;1749676;82;21054;-64
2021/11/15 10:07:57;;;;;;;39.30;27.67;;;;;;;7.83;63.47;101221.77;1750745;82;21015;-64
2021/11/15 10:10:46;;;;;;;36.70;26.62;;;;;;;7.67;63.82;101224.97;1736526;82;21031;-63
2021/11/15 10:13:31;;;;;;;34.63;26.37;;;;;;;7.56;64.28;101231.90;1741000;82;21597;-63
2021/11/15 10:16:10;;;;;;;38.95;27.55;;;;;;;7.43;64.39;101235.52;1739691;82;21082;-63
2021/11/15 10:19:02;;;;;;;38.28;27.25;;;;;;;7.29;64.49;101236.61;1729055;82;21027;-62
2021/11/15 10:21:42;;;;;;;36.93;26.48;;;;;;;7.16;64.62;101237.15;1750687;82;21058;-63
2021/11/15 10:24:19;;;;;;;35.83;25.43;;;;;;;6.91;65.10;101240.55;1763592;80;21007;-64
2021/11/15 10:26:55;;;;;;;32.05;22.80;;;;;;;6.77;65.47;101242.12;1784284;80;21087;-64
2021/11/15 10:29:34;;;;;;;30.95;22.45;;;;;;;6.75;65.61;101248.29;1658647;86;21022;-64
2021/11/15 10:32:14;;;;;;;28.73;21.17;;;;;;;6.73;65.53;101249.03;1723379;83;21019;-64
2021/11/15 10:34:48;;;;;;;31.62;22.95;;;;;;;6.77;65.62;101252.44;1735118;82;21534;-64
2021/11/15 10:37:16;;;;;;;28.92;21.27;;;;;;;6.77;65.44;101267.33;1723415;83;21558;-64
2021/11/15 10:39:55;;;;;;;30.17;22.85;;;;;;;6.73;65.44;101262.56;1731657;82;20971;-64
2021/11/15 10:42:24;;;;;;;30.30;21.48;;;;;;;6.74;65.55;101265.56;1753154;82;21549;-64
2021/11/15 10:45:04;;;;;;;28.47;21.62;;;;;;;6.80;65.93;101270.16;1753230;82;21050;-64
2021/11/15 10:47:41;;;;;;;29.67;22.60;;;;;;;6.96;65.62;101269.19;1753004;82;21062;-63
2021/11/15 10:50:42;;;;;;;33.70;23.20;;;;;;;7.05;65.66;101275.19;1753302;81;21007;-64
2021/11/15 10:53:14;;;;;;;30.23;22.58;;;;;;;7.11;65.26;101275.73;1726581;82;21067;-64
2021/11/15 10:55:51;;;;;;;29.20;22.67;;;;;;;6.97;65.03;101288.46;1753120;81;21578;-64
2021/11/15 10:58:22;;;;;;;32.85;22.17;;;;;;;6.78;65.03;101283.05;1746893;82;21126;-63
2021/11/15 11:00:52;;;;;;;30.57;21.77;;;;;;;6.61;65.52;101281.30;1734723;82;21427;-61
2021/11/15 11:03:21;;;;;;;29.12;21.10;;;;;;;6.54;65.84;101297.22;1753094;82;21058;-62
2021/11/15 11:05:53;;;;;;;27.80;21.25;;;;;;;6.54;65.93;101300.76;1737854;82;21038;-62
2021/11/15 11:08:24;;;;;;;30.30;20.55;;;;;;;6.44;66.30;101310.64;1723127;83;21074;-62
2021/11/15 11:11:03;;;;;;;28.90;21.73;;;;;;;6.36;66.29;101310.84;1729437;82;21022;-62
2021/11/15 11:13:32;;;;;;;29.65;21.90;;;;;;;6.17;66.26;101313.48;1704642;84;21549;-63
2021/11/15 11:15:58;;;;;;;29.48;21.05;;;;;;;5.87;66.90;101316.55;1719217;83;20999;-63
2021/11/15 11:24:15;;;;;;;31.48;21.37;;;;;;;5.58;68.24;101313.27;1733318;82;20999;-62
2021/11/15 11:26:32;;;;;;;30.05;21.65;;;;;;;5.46;68.49;101315.70;1732062;82;21074;-62
2021/11/15 11:29:09;;;;;;;31.00;22.45;;;;;;;5.31;68.88;101313.16;1723521;83;21015;-62
2021/11/15 11:31:37;;;;;;;;;;;;;;;5.29;69.17;101309.80;1723597;82;21079;-62
2021/11/15 11:34:04;;;;;;;31.77;21.80;;;;;;;5.26;69.33;101322.36;1735309;82;20103;-62